sensor_id;sensor_type;location;lat;lon;timestamp;pressure;altitude;pressure_sealevel;temperature;humidity
57859;BME280;49153;45.568;11.894;2023-02-15T00:06:52;102825.31;;;4.25;74.57
57859;BME280;49153;45.568;11.894;2023-02-15T00:09:35;102853.00;;;4.41;74.84
57859;BME280;49153;45.568;11.894;2023-02-15T00:12:46;102863.38;;;4.47;74.69
57859;BME280;49153;45.568;11.894;2023-02-15T00:15:43;102843.53;;;4.31;74.51
57859;BME280;49153;45.568;11.894;2023-02-15T00:19:10;102848.78;;;4.31;75.16
57859;BME280;49153;45.568;11.894;2023-02-15T00:24:45;102865.19;;;4.44;75.37
57859;BME280;49153;45.568;11.894;2023-02-15T00:27:44;102837.56;;;4.20;74.18
57859;BME280;49153;45.568;11.894;2023-02-15T00:33:40;102824.81;;;3.93;74.76
57859;BME280;49153;45.568;11.894;2023-02-15T00:39:33;102825.66;;;3.93;75.02
57859;BME280;49153;45.568;11.894;2023-02-15T00:42:44;102849.00;;;4.08;75.23
57859;BME280;49153;45.568;11.894;2023-02-15T00:45:56;102856.78;;;4.16;74.58
57859;BME280;49153;45.568;11.894;2023-02-15T00:49:21;102811.81;;;3.87;74.44
57859;BME280;49153;45.568;11.894;2023-02-15T00:52:28;102831.75;;;3.92;74.42
57859;BME280;49153;45.568;11.894;2023-02-15T00:55:37;102840.41;;;3.97;74.73
57859;BME280;49153;45.568;11.894;2023-02-15T01:04:08;102799.63;;;3.89;74.54
57859;BME280;49153;45.568;11.894;2023-02-15T01:07:19;102830.97;;;3.86;74.74
57859;BME280;49153;45.568;11.894;2023-02-15T01:12:52;102825.97;;;3.64;74.97
57859;BME280;49153;45.568;11.894;2023-02-15T01:15:54;102783.59;;;3.33;75.31
57859;BME280;49153;45.568;11.894;2023-02-15T01:21:15;102793.94;;;3.46;76.04
57859;BME280;49153;45.568;11.894;2023-02-15T01:24:33;102789.63;;;3.40;76.06
57859;BME280;49153;45.568;11.894;2023-02-15T01:27:10;102812.97;;;3.55;76.24
57859;BME280;49153;45.568;11.894;2023-02-15T01:30:27;102779.09;;;3.49;75.70
57859;BME280;49153;45.568;11.894;2023-02-15T01:33:55;102795.63;;;3.54;75.33
57859;BME280;49153;45.568;11.894;2023-02-15T01:37:26;102795.56;;;3.57;75.46
57859;BME280;49153;45.568;11.894;2023-02-15T01:40:40;102796.41;;;3.61;75.52
57859;BME280;49153;45.568;11.894;2023-02-15T01:46:42;102796.44;;;3.56;75.12
57859;BME280;49153;45.568;11.894;2023-02-15T01:49:59;102772.34;;;3.30;74.67
57859;BME280;49153;45.568;11.894;2023-02-15T01:53:33;102802.72;;;3.34;75.69
57859;BME280;49153;45.568;11.894;2023-02-15T01:57:11;102798.44;;;3.24;75.37
57859;BME280;49153;45.568;11.894;2023-02-15T02:00:24;102776.81;;;3.13;75.41
57859;BME280;49153;45.568;11.894;2023-02-15T02:07:12;102753.34;;;3.13;75.86
57859;BME280;49153;45.568;11.894;2023-02-15T02:10:40;102768.94;;;3.22;75.50
57859;BME280;49153;45.568;11.894;2023-02-15T02:23:25;102780.41;;;3.01;77.12
57859;BME280;49153;45.568;11.894;2023-02-15T02:33:32;102728.47;;;2.72;76.48
57859;BME280;49153;45.568;11.894;2023-02-15T02:43:29;102767.50;;;2.78;76.47
57859;BME280;49153;45.568;11.894;2023-02-15T02:46:50;102743.25;;;2.67;76.74
57859;BME280;49153;45.568;11.894;2023-02-15T02:52:51;102771.75;;;2.91;76.69
57859;BME280;49153;45.568;11.894;2023-02-15T02:56:20;102755.31;;;2.80;76.25
57859;BME280;49153;45.568;11.894;2023-02-15T02:59:34;102738.88;;;2.71;76.60
57859;BME280;49153;45.568;11.894;2023-02-15T03:02:56;102716.38;;;2.61;76.03
57859;BME280;49153;45.568;11.894;2023-02-15T03:11:29;102722.50;;;2.52;76.14
57859;BME280;49153;45.568;11.894;2023-02-15T03:14:39;102717.31;;;2.52;76.59
57859;BME280;49153;45.568;11.894;2023-02-15T03:17:52;102717.31;;;2.50;76.97
57859;BME280;49153;45.568;11.894;2023-02-15T03:21:50;102710.34;;;2.51;76.46
57859;BME280;49153;45.568;11.894;2023-02-15T03:25:04;102724.28;;;2.47;76.45
57859;BME280;49153;45.568;11.894;2023-02-15T03:31:29;102744.16;;;2.63;76.13
57859;BME280;49153;45.568;11.894;2023-02-15T03:34:46;102722.53;;;2.46;76.57
57859;BME280;49153;45.568;11.894;2023-02-15T03:37:59;102703.53;;;2.30;76.85
57859;BME280;49153;45.568;11.894;2023-02-15T03:44:42;102713.09;;;2.30;76.63
57859;BME280;49153;45.568;11.894;2023-02-15T03:47:28;102754.59;;;2.55;76.85
57859;BME280;49153;45.568;11.894;2023-02-15T03:50:49;102733.88;;;2.37;77.47
57859;BME280;49153;45.568;11.894;2023-02-15T03:53:57;102739.13;;;2.31;77.15
57859;BME280;49153;45.568;11.894;2023-02-15T03:57:23;102707.09;;;2.06;76.76
57859;BME280;49153;45.568;11.894;2023-02-15T04:00:50;102738.28;;;2.25;76.49
57859;BME280;49153;45.568;11.894;2023-02-15T04:07:35;102729.66;;;2.07;76.99
57859;BME280;49153;45.568;11.894;2023-02-15T04:11:04;102759.09;;;2.25;76.80
57859;BME280;49153;45.568;11.894;2023-02-15T04:14:16;102749.59;;;2.16;76.95
57859;BME280;49153;45.568;11.894;2023-02-15T04:17:43;102737.53;;;2.00;76.52
57859;BME280;49153;45.568;11.894;2023-02-15T04:20:48;102736.66;;;1.96;77.58
57859;BME280;49153;45.568;11.894;2023-02-15T04:24:15;102719.34;;;1.86;77.83
57859;BME280;49153;45.568;11.894;2023-02-15T04:27:44;102706.34;;;1.83;77.58
57859;BME280;49153;45.568;11.894;2023-02-15T04:30:48;102739.25;;;1.96;77.51
57859;BME280;49153;45.568;11.894;2023-02-15T04:33:47;102715.03;;;1.75;77.79
57859;BME280;49153;45.568;11.894;2023-02-15T04:37:13;102713.31;;;1.72;77.77
57859;BME280;49153;45.568;11.894;2023-02-15T04:42:56;102721.97;;;1.85;77.56
57859;BME280;49153;45.568;11.894;2023-02-15T04:46:06;102718.50;;;1.83;77.90
57859;BME280;49153;45.568;11.894;2023-02-15T04:49:14;102719.41;;;1.73;77.74
57859;BME280;49153;45.568;11.894;2023-02-15T04:52:23;102705.53;;;1.64;77.86
57859;BME280;49153;45.568;11.894;2023-02-15T04:55:48;102729.78;;;1.77;77.90
57859;BME280;49153;45.568;11.894;2023-02-15T05:01:58;102734.16;;;1.69;78.36
57859;BME280;49153;45.568;11.894;2023-02-15T05:07:49;102725.50;;;1.56;78.65
57859;BME280;49153;45.568;11.894;2023-02-15T05:10:34;102702.97;;;1.43;78.64
57859;BME280;49153;45.568;11.894;2023-02-15T05:13:43;102696.09;;;1.32;78.71
57859;BME280;49153;45.568;11.894;2023-02-15T05:17:14;102713.38;;;1.39;78.61
57859;BME280;49153;45.568;11.894;2023-02-15T05:22:48;102701.28;;;1.35;79.18
57859;BME280;49153;45.568;11.894;2023-02-15T05:33:47;102754.97;;;1.63;78.56
57859;BME280;49153;45.568;11.894;2023-02-15T05:36:59;102736.78;;;1.49;78.93
57859;BME280;49153;45.568;11.894;2023-02-15T05:42:59;102722.06;;;1.41;78.87
57859;BME280;49153;45.568;11.894;2023-02-15T05:46:25;102724.69;;;1.32;79.00
57859;BME280;49153;45.568;11.894;2023-02-15T05:49:51;102731.59;;;1.33;79.19
57859;BME280;49153;45.568;11.894;2023-02-15T05:52:43;102747.19;;;1.40;78.62
57859;BME280;49153;45.568;11.894;2023-02-15T05:56:02;102729.00;;;1.31;79.36
57859;BME280;49153;45.568;11.894;2023-02-15T05:59:27;102754.09;;;1.49;79.37
57859;BME280;49153;45.568;11.894;2023-02-15T06:02:34;102742.00;;;1.42;78.89
57859;BME280;49153;45.568;11.894;2023-02-15T06:05:53;102751.50;;;1.49;79.20
57859;BME280;49153;45.568;11.894;2023-02-15T06:12:22;102761.03;;;1.50;78.77
57859;BME280;49153;45.568;11.894;2023-02-15T06:15:50;102749.78;;;1.33;78.80
57859;BME280;49153;45.568;11.894;2023-02-15T06:19:00;102741.13;;;1.23;78.90
57859;BME280;49153;45.568;11.894;2023-02-15T06:25:20;102784.44;;;1.50;79.55
57859;BME280;49153;45.568;11.894;2023-02-15T06:30:51;102734.22;;;1.16;79.41
57859;BME280;49153;45.568;11.894;2023-02-15T06:33:51;102755.84;;;1.22;79.06
57859;BME280;49153;45.568;11.894;2023-02-15T06:37:09;102769.72;;;1.34;79.54
57859;BME280;49153;45.568;11.894;2023-02-15T06:40:15;102769.72;;;1.27;79.54
57859;BME280;49153;45.568;11.894;2023-02-15T06:43:41;102751.53;;;1.08;79.49
57859;BME280;49153;45.568;11.894;2023-02-15T06:46:33;102774.91;;;1.18;79.79
57859;BME280;49153;45.568;11.894;2023-02-15T06:49:54;102787.03;;;1.22;79.50
57859;BME280;49153;45.568;11.894;2023-02-15T06:53:22;102769.72;;;1.12;80.08
57859;BME280;49153;45.568;11.894;2023-02-15T06:56:47;102781.84;;;1.16;79.56
57859;BME280;49153;45.568;11.894;2023-02-15T07:05:46;102789.66;;;1.25;81.50
57859;BME280;49153;45.568;11.894;2023-02-15T07:09:12;102759.34;;;1.24;81.48
57859;BME280;49153;45.568;11.894;2023-02-15T07:12:17;102761.06;;;1.32;81.42
57859;BME280;49153;45.568;11.894;2023-02-15T07:15:53;102781.88;;;1.47;82.08
57859;BME280;49153;45.568;11.894;2023-02-15T07:19:28;102793.13;;;1.62;82.03
57859;BME280;49153;45.568;11.894;2023-02-15T07:22:25;102743.75;;;1.43;82.12
57859;BME280;49153;45.568;11.894;2023-02-15T07:31:16;102767.94;;;1.75;83.33
57859;BME280;49153;45.568;11.894;2023-02-15T07:38:02;102805.94;;;2.29;84.11
57859;BME280;49153;45.568;11.894;2023-02-15T07:40:50;102782.50;;;2.37;83.60
57859;BME280;49153;45.568;11.894;2023-02-15T07:44:10;102800.59;;;2.64;84.36
57859;BME280;49153;45.568;11.894;2023-02-15T07:47:22;102777.97;;;2.71;83.96
57859;BME280;49153;45.568;11.894;2023-02-15T07:51:12;102753.59;;;2.76;84.54
57859;BME280;49153;45.568;11.894;2023-02-15T07:54:22;102775.09;;;3.09;83.69
57859;BME280;49153;45.568;11.894;2023-02-15T07:57:37;102756.81;;;3.15;84.36
57859;BME280;49153;45.568;11.894;2023-02-15T08:00:43;102747.94;;;3.34;84.20
57859;BME280;49153;45.568;11.894;2023-02-15T08:03:50;102752.09;;;3.56;85.36
57859;BME280;49153;45.568;11.894;2023-02-15T08:09:51;102745.56;;;3.97;84.23
57859;BME280;49153;45.568;11.894;2023-02-15T08:13:02;102747.91;;;4.18;84.49
57859;BME280;49153;45.568;11.894;2023-02-15T08:15:53;102773.59;;;4.53;84.27
57859;BME280;49153;45.568;11.894;2023-02-15T08:19:20;102782.75;;;4.83;83.82
57859;BME280;49153;45.568;11.894;2023-02-15T08:22:13;102787.63;;;5.07;83.49
57859;BME280;49153;45.568;11.894;2023-02-15T08:25:34;102748.41;;;5.05;83.38
57859;BME280;49153;45.568;11.894;2023-02-15T08:31:28;102739.94;;;5.43;82.88
57859;BME280;49153;45.568;11.894;2023-02-15T08:34:03;102738.88;;;5.53;82.54
57859;BME280;49153;45.568;11.894;2023-02-15T08:37:28;102758.16;;;5.97;82.71
57859;BME280;49153;45.568;11.894;2023-02-15T08:40:42;102750.81;;;6.14;82.37
57859;BME280;49153;45.568;11.894;2023-02-15T08:47:00;102778.63;;;6.63;81.68
57859;BME280;49153;45.568;11.894;2023-02-15T08:49:50;102754.88;;;6.69;81.72
57859;BME280;49153;45.568;11.894;2023-02-15T08:55:43;102778.84;;;7.28;80.80
57859;BME280;49153;45.568;11.894;2023-02-15T08:58:42;102741.19;;;7.29;80.31
57859;BME280;49153;45.568;11.894;2023-02-15T09:01:57;102726.72;;;7.46;79.92
57859;BME280;49153;45.568;11.894;2023-02-15T09:05:18;102774.38;;;7.97;78.66
57859;BME280;49153;45.568;11.894;2023-02-15T09:08:12;102752.34;;;8.03;79.25
57859;BME280;49153;45.568;11.894;2023-02-15T09:11:03;102764.75;;;8.27;78.54
57859;BME280;49153;45.568;11.894;2023-02-15T09:14:13;102777.84;;;8.60;77.94
57859;BME280;49153;45.568;11.894;2023-02-15T09:16:57;102779.06;;;8.77;77.01
57859;BME280;49153;45.568;11.894;2023-02-15T09:19:24;102771.50;;;8.95;76.30
57859;BME280;49153;45.568;11.894;2023-02-15T09:21:49;102774.44;;;9.12;75.42
57859;BME280;49153;45.568;11.894;2023-02-15T09:24:16;102774.78;;;9.29;72.78
57859;BME280;49153;45.568;11.894;2023-02-15T09:26:44;102769.00;;;9.44;73.05
57859;BME280;49153;45.568;11.894;2023-02-15T09:29:11;102767.44;;;9.63;73.25
57859;BME280;49153;45.568;11.894;2023-02-15T09:31:40;102771.16;;;9.83;71.91
57859;BME280;49153;45.568;11.894;2023-02-15T09:34:06;102771.53;;;9.97;72.31
57859;BME280;49153;45.568;11.894;2023-02-15T09:36:34;102764.09;;;10.08;72.20
57859;BME280;49153;45.568;11.894;2023-02-15T09:39:07;102770.34;;;10.30;71.18
57859;BME280;49153;45.568;11.894;2023-02-15T09:49:50;102774.28;;;10.87;69.22
57859;BME280;49153;45.568;11.894;2023-02-15T10:00:47;102770.97;;;11.46;65.78
57859;BME280;49153;45.568;11.894;2023-02-15T10:03:40;102765.22;;;11.56;64.73
57859;BME280;49153;45.568;11.894;2023-02-15T10:08:51;102763.13;;;11.84;64.49
57859;BME280;49153;45.568;11.894;2023-02-15T10:17:19;102760.66;;;12.20;62.18
57859;BME280;49153;45.568;11.894;2023-02-15T10:25:40;102752.63;;;12.59;60.10
57859;BME280;49153;45.568;11.894;2023-02-15T10:28:17;102755.00;;;12.65;58.05
57859;BME280;49153;45.568;11.894;2023-02-15T10:30:51;102752.00;;;12.73;58.46
57859;BME280;49153;45.568;11.894;2023-02-15T10:33:39;102755.75;;;12.86;58.72
57859;BME280;49153;45.568;11.894;2023-02-15T10:36:31;102747.84;;;13.03;57.19
57859;BME280;49153;45.568;11.894;2023-02-15T10:42:03;102739.66;;;13.27;57.93
57859;BME280;49153;45.568;11.894;2023-02-15T10:50:13;102726.19;;;13.64;55.62
57859;BME280;49153;45.568;11.894;2023-02-15T10:53:07;102719.03;;;13.66;55.21
57859;BME280;49153;45.568;11.894;2023-02-15T10:58:31;102705.66;;;13.85;54.94
57859;BME280;49153;45.568;11.894;2023-02-15T11:06:18;102699.13;;;14.23;54.68
57859;BME280;49153;45.568;11.894;2023-02-15T11:08:54;102693.00;;;14.38;53.38
57859;BME280;49153;45.568;11.894;2023-02-15T11:11:27;102690.50;;;14.51;52.91
57859;BME280;49153;45.568;11.894;2023-02-15T11:14:02;102683.47;;;14.66;51.57
57859;BME280;49153;45.568;11.894;2023-02-15T11:16:35;102684.31;;;14.82;52.55
57859;BME280;49153;45.568;11.894;2023-02-15T11:19:11;102679.91;;;14.97;51.81
57859;BME280;49153;45.568;11.894;2023-02-15T11:21:45;102677.78;;;15.17;50.78
57859;BME280;49153;45.568;11.894;2023-02-15T11:24:14;102679.97;;;15.25;50.28
57859;BME280;49153;45.568;11.894;2023-02-15T11:26:44;102675.09;;;15.33;50.47
57859;BME280;49153;45.568;11.894;2023-02-15T11:29:57;102668.84;;;15.48;49.27
57859;BME280;49153;45.568;11.894;2023-02-15T11:32:21;102668.50;;;15.54;49.57
57859;BME280;49153;45.568;11.894;2023-02-15T11:34:55;102674.56;;;15.71;48.71
57859;BME280;49153;45.568;11.894;2023-02-15T11:37:47;102669.63;;;15.79;47.95
57859;BME280;49153;45.568;11.894;2023-02-15T11:40:34;102670.56;;;15.92;47.44
57859;BME280;49153;45.568;11.894;2023-02-15T11:43:05;102667.22;;;16.02;47.25
57859;BME280;49153;45.568;11.894;2023-02-15T11:45:33;102665.97;;;16.08;46.10
57859;BME280;49153;45.568;11.894;2023-02-15T11:48:10;102657.56;;;16.01;46.06
57859;BME280;49153;45.568;11.894;2023-02-15T11:50:36;102654.78;;;16.03;46.13
57859;BME280;49153;45.568;11.894;2023-02-15T11:53:04;102656.09;;;16.10;45.01
57859;BME280;49153;45.568;11.894;2023-02-15T11:55:31;102649.31;;;16.19;45.67
57859;BME280;49153;45.568;11.894;2023-02-15T12:06:02;102630.13;;;16.55;44.75
57859;BME280;49153;45.568;11.894;2023-02-15T12:08:37;102641.59;;;16.55;45.69
57859;BME280;49153;45.568;11.894;2023-02-15T12:11:09;102627.22;;;16.58;45.81
57859;BME280;49153;45.568;11.894;2023-02-15T12:13:53;102619.66;;;16.78;46.28
57859;BME280;49153;45.568;11.894;2023-02-15T12:16:19;102626.16;;;16.87;44.60
57859;BME280;49153;45.568;11.894;2023-02-15T12:18:46;102615.28;;;16.77;44.98
57859;BME280;49153;45.568;11.894;2023-02-15T12:21:15;102618.94;;;16.89;45.18
57859;BME280;49153;45.568;11.894;2023-02-15T12:23:52;102613.59;;;16.89;43.80
57859;BME280;49153;45.568;11.894;2023-02-15T12:26:26;102614.34;;;16.91;44.76
57859;BME280;49153;45.568;11.894;2023-02-15T12:28:53;102611.50;;;17.07;45.78
57859;BME280;49153;45.568;11.894;2023-02-15T12:31:37;102611.28;;;17.22;45.10
57859;BME280;49153;45.568;11.894;2023-02-15T12:34:17;102611.50;;;17.32;44.71
57859;BME280;49153;45.568;11.894;2023-02-15T12:36:49;102605.44;;;17.43;44.74
57859;BME280;49153;45.568;11.894;2023-02-15T12:39:24;102599.44;;;17.52;44.49
57859;BME280;49153;45.568;11.894;2023-02-15T12:44:23;102590.13;;;17.57;43.96
57859;BME280;49153;45.568;11.894;2023-02-15T12:49:26;102585.66;;;17.58;44.14
57859;BME280;49153;45.568;11.894;2023-02-15T12:52:13;102581.50;;;17.66;43.71
57859;BME280;49153;45.568;11.894;2023-02-15T12:54:48;102576.91;;;17.68;43.94
57859;BME280;49153;45.568;11.894;2023-02-15T13:02:28;102561.06;;;17.91;42.63
57859;BME280;49153;45.568;11.894;2023-02-15T13:04:56;102554.88;;;17.90;42.57
57859;BME280;49153;45.568;11.894;2023-02-15T13:07:25;102554.88;;;17.90;43.05
57859;BME280;49153;45.568;11.894;2023-02-15T13:09:51;102555.66;;;18.03;41.82
57859;BME280;49153;45.568;11.894;2023-02-15T13:12:21;102553.38;;;18.10;42.61
57859;BME280;49153;45.568;11.894;2023-02-15T13:14:49;102548.69;;;18.13;41.69
57859;BME280;49153;45.568;11.894;2023-02-15T13:17:26;102540.31;;;17.94;40.50
57859;BME280;49153;45.568;11.894;2023-02-15T13:19:57;102551.22;;;17.91;41.62
57859;BME280;49153;45.568;11.894;2023-02-15T13:22:44;102544.59;;;17.97;42.02
57859;BME280;49153;45.568;11.894;2023-02-15T13:25:22;102539.63;;;18.03;42.07
57859;BME280;49153;45.568;11.894;2023-02-15T13:27:54;102542.19;;;18.05;40.33
57859;BME280;49153;45.568;11.894;2023-02-15T13:30:25;102548.16;;;18.08;41.22
57859;BME280;49153;45.568;11.894;2023-02-15T13:32:56;102547.84;;;18.13;41.64
57859;BME280;49153;45.568;11.894;2023-02-15T13:35:22;102537.81;;;18.04;40.97
57859;BME280;49153;45.568;11.894;2023-02-15T13:38:06;102546.56;;;18.06;41.17
57859;BME280;49153;45.568;11.894;2023-02-15T13:40:45;102545.53;;;18.20;41.40
57859;BME280;49153;45.568;11.894;2023-02-15T13:43:46;102549.81;;;18.22;41.72
57859;BME280;49153;45.568;11.894;2023-02-15T13:46:44;102545.25;;;18.35;42.20
57859;BME280;49153;45.568;11.894;2023-02-15T13:57:44;102541.44;;;18.50;41.72
57859;BME280;49153;45.568;11.894;2023-02-15T14:00:30;102549.41;;;18.63;41.92
57859;BME280;49153;45.568;11.894;2023-02-15T14:06:34;102539.94;;;18.70;41.34
57859;BME280;49153;45.568;11.894;2023-02-15T14:14:52;102537.53;;;18.78;39.75
57859;BME280;49153;45.568;11.894;2023-02-15T14:18:09;102537.78;;;18.75;39.54
57859;BME280;49153;45.568;11.894;2023-02-15T14:25:33;102530.84;;;18.84;39.91
57859;BME280;49153;45.568;11.894;2023-02-15T14:30:37;102530.00;;;18.83;40.58
57859;BME280;49153;45.568;11.894;2023-02-15T14:33:28;102537.53;;;18.78;39.71
57859;BME280;49153;45.568;11.894;2023-02-15T14:35:53;102529.97;;;18.61;40.16
57859;BME280;49153;45.568;11.894;2023-02-15T14:44:13;102541.41;;;18.74;40.43
57859;BME280;49153;45.568;11.894;2023-02-15T14:49:17;102538.66;;;18.87;40.04
57859;BME280;49153;45.568;11.894;2023-02-15T14:59:41;102530.28;;;19.03;39.56
57859;BME280;49153;45.568;11.894;2023-02-15T15:07:25;102530.78;;;18.96;39.59
57859;BME280;49153;45.568;11.894;2023-02-15T15:14:51;102526.38;;;18.84;39.81
57859;BME280;49153;45.568;11.894;2023-02-15T15:20:12;102525.16;;;18.88;40.13
57859;BME280;49153;45.568;11.894;2023-02-15T15:22:42;102522.09;;;18.93;40.17
57859;BME280;49153;45.568;11.894;2023-02-15T15:25:12;102529.81;;;18.97;40.24
57859;BME280;49153;45.568;11.894;2023-02-15T15:27:56;102519.81;;;18.99;40.26
57859;BME280;49153;45.568;11.894;2023-02-15T15:41:16;102521.03;;;18.95;41.30
57859;BME280;49153;45.568;11.894;2023-02-15T15:49:47;102520.63;;;18.78;41.29
57859;BME280;49153;45.568;11.894;2023-02-15T15:52:15;102522.81;;;18.73;41.90
57859;BME280;49153;45.568;11.894;2023-02-15T15:54:42;102518.78;;;18.67;42.14
57859;BME280;49153;45.568;11.894;2023-02-15T15:57:19;102513.19;;;18.59;42.26
57859;BME280;49153;45.568;11.894;2023-02-15T15:59:46;102510.72;;;18.56;42.48
57859;BME280;49153;45.568;11.894;2023-02-15T16:02:16;102517.16;;;18.53;43.01
57859;BME280;49153;45.568;11.894;2023-02-15T16:04:42;102514.72;;;18.50;42.94
57859;BME280;49153;45.568;11.894;2023-02-15T16:10:04;102520.69;;;18.30;42.92
57859;BME280;49153;45.568;11.894;2023-02-15T16:12:32;102514.78;;;18.14;43.01
57859;BME280;49153;45.568;11.894;2023-02-15T16:15:02;102515.94;;;17.99;43.17
57859;BME280;49153;45.568;11.894;2023-02-15T16:17:31;102514.28;;;17.85;43.46
57859;BME280;49153;45.568;11.894;2023-02-15T16:20:06;102520.75;;;17.70;43.64
57859;BME280;49153;45.568;11.894;2023-02-15T16:22:32;102523.13;;;17.49;43.38
57859;BME280;49153;45.568;11.894;2023-02-15T16:25:14;102526.56;;;17.26;43.24
57859;BME280;49153;45.568;11.894;2023-02-15T16:27:44;102526.78;;;17.10;43.52
57859;BME280;49153;45.568;11.894;2023-02-15T16:30:27;102524.44;;;16.93;43.34
57859;BME280;49153;45.568;11.894;2023-02-15T16:33:06;102523.66;;;16.66;43.13
57859;BME280;49153;45.568;11.894;2023-02-15T16:35:32;102522.63;;;16.41;43.61
57859;BME280;49153;45.568;11.894;2023-02-15T16:37:58;102523.84;;;16.23;43.45
57859;BME280;49153;45.568;11.894;2023-02-15T16:42:50;102529.16;;;15.84;44.09
57859;BME280;49153;45.568;11.894;2023-02-15T16:45:18;102521.47;;;15.65;44.63
57859;BME280;49153;45.568;11.894;2023-02-15T16:47:46;102528.44;;;15.53;44.74
57859;BME280;49153;45.568;11.894;2023-02-15T16:50:22;102522.34;;;15.37;45.34
57859;BME280;49153;45.568;11.894;2023-02-15T16:52:49;102536.59;;;15.22;45.62
57859;BME280;49153;45.568;11.894;2023-02-15T16:55:36;102516.66;;;15.01;46.04
57859;BME280;49153;45.568;11.894;2023-02-15T16:58:05;102533.84;;;14.95;46.22
57859;BME280;49153;45.568;11.894;2023-02-15T17:00:35;102526.09;;;14.62;46.74
57859;BME280;49153;45.568;11.894;2023-02-15T17:05:40;102525.31;;;14.15;47.83
57859;BME280;49153;45.568;11.894;2023-02-15T17:08:17;102528.66;;;14.03;47.98
57859;BME280;49153;45.568;11.894;2023-02-15T17:11:19;102533.91;;;13.88;48.16
57859;BME280;49153;45.568;11.894;2023-02-15T17:19:08;102547.75;;;13.62;48.94
57859;BME280;49153;45.568;11.894;2023-02-15T17:21:42;102536.94;;;13.49;48.92
57859;BME280;49153;45.568;11.894;2023-02-15T17:24:17;102542.50;;;13.45;49.30
57859;BME280;49153;45.568;11.894;2023-02-15T17:26:49;102553.91;;;13.47;49.59
57859;BME280;49153;45.568;11.894;2023-02-15T17:31:51;102553.63;;;13.36;50.01
57859;BME280;49153;45.568;11.894;2023-02-15T17:40:00;102562.63;;;12.99;50.67
57859;BME280;49153;45.568;11.894;2023-02-15T17:42:25;102562.31;;;12.88;50.92
57859;BME280;49153;45.568;11.894;2023-02-15T17:48:34;102566.50;;;12.75;51.68
57859;BME280;49153;45.568;11.894;2023-02-15T17:51:00;102567.22;;;12.78;51.77
57859;BME280;49153;45.568;11.894;2023-02-15T17:53:26;102569.03;;;12.78;51.60
57859;BME280;49153;45.568;11.894;2023-02-15T17:55:52;102568.31;;;12.57;51.55
57859;BME280;49153;45.568;11.894;2023-02-15T17:58:18;102572.38;;;12.47;51.83
57859;BME280;49153;45.568;11.894;2023-02-15T18:00:56;102558.16;;;12.31;52.00
57859;BME280;49153;45.568;11.894;2023-02-15T18:03:49;102553.50;;;12.00;52.31
57859;BME280;49153;45.568;11.894;2023-02-15T18:06:38;102561.59;;;11.78;52.88
57859;BME280;49153;45.568;11.894;2023-02-15T18:09:23;102572.44;;;11.72;53.50
57859;BME280;49153;45.568;11.894;2023-02-15T18:12:27;102581.28;;;11.71;53.63
57859;BME280;49153;45.568;11.894;2023-02-15T18:14:54;102573.34;;;11.71;53.87
57859;BME280;49153;45.568;11.894;2023-02-15T18:17:27;102580.00;;;11.61;53.90
57859;BME280;49153;45.568;11.894;2023-02-15T18:19:54;102574.97;;;11.55;54.23
57859;BME280;49153;45.568;11.894;2023-02-15T18:22:20;102570.34;;;11.41;54.41
57859;BME280;49153;45.568;11.894;2023-02-15T18:24:47;102585.38;;;11.39;54.37
57859;BME280;49153;45.568;11.894;2023-02-15T18:27:13;102588.41;;;11.31;54.95
57859;BME280;49153;45.568;11.894;2023-02-15T18:29:39;102584.34;;;11.23;54.91
57859;BME280;49153;45.568;11.894;2023-02-15T18:32:23;102573.59;;;11.07;55.36
57859;BME280;49153;45.568;11.894;2023-02-15T18:34:49;102581.03;;;10.99;55.67
57859;BME280;49153;45.568;11.894;2023-02-15T18:37:18;102591.38;;;10.83;55.59
57859;BME280;49153;45.568;11.894;2023-02-15T18:39:49;102588.09;;;10.78;56.57
57859;BME280;49153;45.568;11.894;2023-02-15T18:42:25;102592.50;;;10.78;56.24
57859;BME280;49153;45.568;11.894;2023-02-15T18:45:00;102602.22;;;10.55;56.08
57859;BME280;49153;45.568;11.894;2023-02-15T18:47:28;102586.88;;;10.43;56.80
57859;BME280;49153;45.568;11.894;2023-02-15T18:49:54;102590.59;;;10.39;57.25
57859;BME280;49153;45.568;11.894;2023-02-15T18:52:21;102595.63;;;10.45;57.08
57859;BME280;49153;45.568;11.894;2023-02-15T18:54:51;102592.41;;;10.37;57.55
57859;BME280;49153;45.568;11.894;2023-02-15T18:57:17;102589.63;;;10.20;57.35
57859;BME280;49153;45.568;11.894;2023-02-15T18:59:42;102596.00;;;10.13;57.54
57859;BME280;49153;45.568;11.894;2023-02-15T19:02:18;102596.25;;;10.07;57.99
57859;BME280;49153;45.568;11.894;2023-02-15T19:04:44;102599.75;;;10.07;58.56
57859;BME280;49153;45.568;11.894;2023-02-15T19:07:19;102594.28;;;10.12;58.59
57859;BME280;49153;45.568;11.894;2023-02-15T19:09:49;102584.97;;;10.03;58.42
57859;BME280;49153;45.568;11.894;2023-02-15T19:12:16;102598.38;;;9.97;58.74
57859;BME280;49153;45.568;11.894;2023-02-15T19:14:44;102596.25;;;9.84;58.68
57859;BME280;49153;45.568;11.894;2023-02-15T19:17:14;102592.44;;;9.69;59.03
57859;BME280;49153;45.568;11.894;2023-02-15T19:19:40;102597.19;;;9.59;59.82
57859;BME280;49153;45.568;11.894;2023-02-15T19:22:12;102596.63;;;9.51;59.54
57859;BME280;49153;45.568;11.894;2023-02-15T19:24:39;102610.03;;;9.45;59.83
57859;BME280;49153;45.568;11.894;2023-02-15T19:27:08;102600.75;;;9.35;60.08
57859;BME280;49153;45.568;11.894;2023-02-15T19:29:42;102606.22;;;9.29;59.88
57859;BME280;49153;45.568;11.894;2023-02-15T19:32:10;102616.94;;;9.24;59.92
57859;BME280;49153;45.568;11.894;2023-02-15T19:34:36;102606.13;;;9.07;60.65